Current | Forecast
Updated: 3:00 AM EET on February 26, 2018
Observed at Krivvy Rih, Ukraine
Temperature -14°C
Windchill -22°C
Humidity 85%
Dew Point -16°C
Wind North at 14 km/h
Pressure 1022 hPa (Steady)
Conditions Clear
Visibility -
UV N/A
Clouds
Yesterday's Maximum -5°C
Yesterday's Minimum -13°C approx.
Yesterday's Heating Degree Days 49 approx.
Sunrise6:33 AM EET
Sunset5:23 PM EET
Moon Rise1:07 PM EET
Moon Set3:57 AM EET
Moon PhaseMoon Phase
Waxing Gibbous
Raw METARMETAR UKDR 260100Z 35004MPS CAVOK M14/M16 Q1022 R36/410545 NOSIG


Monday
. High: 57° F.
Tuesday
. High: 62° F.
Wednesday
. High: 64° F.
Thursday
. High: 68° F.
Friday
. High: 60° F.
Saturday
. High: 57° F.
Sunday
. High: 64° F.
Monday
. High: 71° F.

Units: English | Metric

Find the Weather for any City, State or Zipcode, or Country:

U.S. State List | Severe Weather | Tropical Storms | Ski Conditions
United States | Canada | Central America | South America | Asia | Europe | Australia | Africa | Islands

Weather Underground

© Copyright 2018
The Weather Company, LLC